createdAt,value
2023-05-19T00:01:44.954Z,1.60
2023-05-19T00:04:04.153Z,1.50
2023-05-19T00:06:18.443Z,1.20
2023-05-19T00:08:34.760Z,1.40
2023-05-19T00:10:46.067Z,1.30
2023-05-19T00:12:57.840Z,1.30
2023-05-19T00:15:18.355Z,1.40
2023-05-19T00:17:32.095Z,1.20
2023-05-19T00:19:44.088Z,1.30
2023-05-19T00:21:57.375Z,1.60
2023-05-19T00:24:13.854Z,1.40
2023-05-19T00:26:31.420Z,1.57
2023-05-19T00:28:44.733Z,1.43
2023-05-19T00:30:54.854Z,1.47
2023-05-19T00:33:07.076Z,1.27
2023-05-19T00:35:18.586Z,1.20
2023-05-19T00:37:37.149Z,1.47
2023-05-19T00:39:52.223Z,1.60
2023-05-19T00:42:05.765Z,2.50
2023-05-19T00:44:17.950Z,1.57
2023-05-19T00:46:31.400Z,1.30
2023-05-19T00:48:46.573Z,1.30
2023-05-19T00:51:05.746Z,1.57
2023-05-19T00:53:17.491Z,1.57
2023-05-19T00:55:35.568Z,1.27
2023-05-19T00:57:46.965Z,1.70
2023-05-19T00:59:58.548Z,1.50
2023-05-19T01:02:07.990Z,1.43
2023-05-19T01:04:17.024Z,1.20
2023-05-19T01:06:27.828Z,1.37
2023-05-19T01:08:37.533Z,1.30
2023-05-19T01:10:47.955Z,1.40
2023-05-19T01:12:56.583Z,0.97
2023-05-19T01:15:06.772Z,1.20
2023-05-19T01:17:23.577Z,1.53
2023-05-19T01:19:40.211Z,1.40
2023-05-19T01:21:58.028Z,1.30
2023-05-19T01:24:14.544Z,1.60
2023-05-19T01:26:38.111Z,1.50
2023-05-19T01:29:05.363Z,1.40
2023-05-19T01:31:16.226Z,1.10
2023-05-19T01:33:25.526Z,1.53
2023-05-19T01:35:34.983Z,1.70
2023-05-19T01:37:45.436Z,1.57
2023-05-19T01:39:55.785Z,1.50
2023-05-19T01:42:04.884Z,1.30
2023-05-19T01:44:13.815Z,1.60
2023-05-19T01:46:25.327Z,1.30
2023-05-19T01:48:35.843Z,1.23
2023-05-19T01:50:44.665Z,1.23
2023-05-19T01:52:53.932Z,1.37
2023-05-19T01:55:02.959Z,1.40
2023-05-19T01:57:16.550Z,1.50
2023-05-19T01:59:30.588Z,1.33
2023-05-19T02:01:47.082Z,1.50
2023-05-19T02:04:03.535Z,1.57
2023-05-19T02:06:18.257Z,1.70
2023-05-19T02:08:29.343Z,1.37
2023-05-19T02:10:39.933Z,1.40
2023-05-19T02:12:50.045Z,1.30
2023-05-19T02:15:01.891Z,1.30
2023-05-19T02:17:12.617Z,1.40
2023-05-19T02:19:28.283Z,1.30
2023-05-19T02:21:39.231Z,1.50
2023-05-19T02:23:48.206Z,1.57
2023-05-19T02:25:57.237Z,1.27
2023-05-19T02:28:06.834Z,1.67
2023-05-19T02:30:15.865Z,1.30
2023-05-19T02:32:26.395Z,1.23
2023-05-19T02:34:36.324Z,1.70
2023-05-19T02:36:45.788Z,1.20
2023-05-19T02:38:54.818Z,1.20
2023-05-19T02:41:03.502Z,1.60
2023-05-19T02:43:12.295Z,1.27
2023-05-19T02:45:20.962Z,1.67
2023-05-19T02:47:31.448Z,1.23
2023-05-19T02:49:39.962Z,1.40
2023-05-19T02:51:48.982Z,1.23
2023-05-19T02:53:57.868Z,1.57
2023-05-19T02:56:07.707Z,1.43
2023-05-19T02:58:16.488Z,1.57
2023-05-19T03:00:25.279Z,1.40
2023-05-19T03:02:35.654Z,1.27
2023-05-19T03:04:46.053Z,1.50
2023-05-19T03:06:54.809Z,1.40
2023-05-19T03:09:03.826Z,1.40
2023-05-19T03:11:12.893Z,1.10
2023-05-19T03:13:21.587Z,1.40
2023-05-19T03:15:30.679Z,1.30
2023-05-19T03:17:41.488Z,1.53
2023-05-19T03:19:51.292Z,1.60
2023-05-19T03:22:00.050Z,1.40
2023-05-19T03:24:09.442Z,1.40
2023-05-19T03:26:18.593Z,1.40
2023-05-19T03:28:28.200Z,1.40
2023-05-19T03:30:37.398Z,1.40
2023-05-19T03:32:47.852Z,1.30
2023-05-19T03:34:57.130Z,1.30
2023-05-19T03:37:06.170Z,1.30
2023-05-19T03:39:15.420Z,1.57
2023-05-19T03:41:24.389Z,1.40
2023-05-19T03:43:33.917Z,1.50
2023-05-19T03:45:42.931Z,1.50
2023-05-19T03:47:53.825Z,1.50
2023-05-19T03:50:03.147Z,1.20
2023-05-19T03:52:13.158Z,1.60
2023-05-19T03:54:22.994Z,1.67
2023-05-19T03:56:33.209Z,1.50
2023-05-19T03:58:44.507Z,1.47
2023-05-19T04:00:53.822Z,1.70
2023-05-19T04:03:04.918Z,1.43
2023-05-19T04:05:14.062Z,1.37
2023-05-19T04:07:22.942Z,1.63
2023-05-19T04:09:35.590Z,1.40
2023-05-19T04:11:45.132Z,1.67
2023-05-19T04:13:53.929Z,1.37
2023-05-19T04:16:03.212Z,1.50
2023-05-19T04:18:13.838Z,1.77
2023-05-19T04:20:23.127Z,1.60
2023-05-19T04:22:32.046Z,1.50
2023-05-19T04:24:41.118Z,1.83
2023-05-19T04:26:49.888Z,1.67
2023-05-19T04:28:59.001Z,1.70
2023-05-19T04:31:11.191Z,1.70
2023-05-19T04:33:21.613Z,1.77
2023-05-19T04:35:30.299Z,1.60
2023-05-19T04:37:39.118Z,1.53
2023-05-19T04:39:48.417Z,1.90
2023-05-19T04:41:57.681Z,1.50
2023-05-19T04:44:07.473Z,1.90
2023-05-19T04:46:16.708Z,1.50
2023-05-19T04:48:27.434Z,1.73
2023-05-19T04:50:38.730Z,1.30
2023-05-19T04:52:47.506Z,1.70
2023-05-19T04:54:56.757Z,2.13
2023-05-19T04:57:05.711Z,1.80
2023-05-19T04:59:14.599Z,1.87
2023-05-19T05:01:26.257Z,1.60
2023-05-19T05:03:37.260Z,1.90
2023-05-19T05:05:46.883Z,1.50
2023-05-19T05:07:56.720Z,1.43
2023-05-19T05:10:05.985Z,1.97
2023-05-19T05:12:15.773Z,1.60
2023-05-19T05:14:24.919Z,1.40
2023-05-19T05:16:34.474Z,2.00
2023-05-19T05:18:47.294Z,1.50
2023-05-19T05:20:56.444Z,1.60
2023-05-19T05:23:05.697Z,1.80
2023-05-19T05:25:15.277Z,1.80
2023-05-19T05:27:24.157Z,1.60
2023-05-19T05:29:33.044Z,1.47
2023-05-19T05:31:41.714Z,1.60
2023-05-19T05:33:52.139Z,1.60
2023-05-19T05:36:00.979Z,1.60
2023-05-19T05:38:12.561Z,1.40
2023-05-19T05:40:21.349Z,1.43
2023-05-19T05:42:30.265Z,1.83
2023-05-19T05:44:39.573Z,1.53
2023-05-19T05:46:48.504Z,1.60
2023-05-19T05:48:59.885Z,1.70
2023-05-19T05:51:09.326Z,1.97
2023-05-19T05:53:21.485Z,1.67
2023-05-19T05:55:30.993Z,1.63
2023-05-19T05:57:41.917Z,1.57
2023-05-19T05:59:51.181Z,1.80
2023-05-19T06:01:59.954Z,2.23
2023-05-19T06:04:10.392Z,1.50
2023-05-19T06:06:19.465Z,1.83
2023-05-19T06:08:28.597Z,1.77
2023-05-19T06:10:39.139Z,1.30
2023-05-19T06:12:48.601Z,1.40
2023-05-19T06:14:57.306Z,1.50
2023-05-19T06:17:06.401Z,1.50
2023-05-19T06:19:16.741Z,1.30
2023-05-19T06:21:25.864Z,1.70
2023-05-19T06:23:34.446Z,1.60
2023-05-19T06:25:43.166Z,1.80
2023-05-19T06:27:52.440Z,1.57
2023-05-19T06:30:01.348Z,1.77
2023-05-19T06:32:10.297Z,1.70
2023-05-19T06:34:21.273Z,1.40
2023-05-19T06:36:30.188Z,1.43
2023-05-19T06:38:39.416Z,1.93
2023-05-19T06:40:48.506Z,1.60
2023-05-19T06:42:57.238Z,1.40
2023-05-19T06:45:06.508Z,2.00
2023-05-19T06:47:16.086Z,1.30
2023-05-19T06:49:29.960Z,1.30
2023-05-19T06:51:38.700Z,1.50
2023-05-19T06:53:47.247Z,1.63
2023-05-19T06:56:00.051Z,1.53
2023-05-19T06:58:09.081Z,1.67
2023-05-19T07:00:31.123Z,1.60
2023-05-19T07:02:40.531Z,1.40
2023-05-19T07:04:51.584Z,1.70
2023-05-19T07:07:00.501Z,1.80
2023-05-19T07:09:09.241Z,1.67
2023-05-19T07:11:18.175Z,1.40
2023-05-19T07:13:27.535Z,1.43
2023-05-19T07:15:36.913Z,1.30
2023-05-19T07:17:46.594Z,1.60
2023-05-19T07:19:57.225Z,1.60
2023-05-19T07:22:08.355Z,1.50
2023-05-19T07:24:17.234Z,1.70
2023-05-19T07:26:26.924Z,1.70
2023-05-19T07:28:36.099Z,1.60
2023-05-19T07:30:45.199Z,1.57
2023-05-19T07:32:54.527Z,1.83
2023-05-19T07:35:05.936Z,2.20
2023-05-19T07:37:14.900Z,1.80
2023-05-19T07:39:25.335Z,1.60
2023-05-19T07:41:35.717Z,1.87
2023-05-19T07:43:45.113Z,1.47
2023-05-19T07:45:56.465Z,1.37
2023-05-19T07:48:06.184Z,1.73
2023-05-19T07:50:17.016Z,1.90
2023-05-19T07:52:26.227Z,1.63
2023-05-19T07:54:35.534Z,1.90
2023-05-19T07:56:44.725Z,2.03
2023-05-19T07:58:53.645Z,1.93
2023-05-19T08:01:02.939Z,1.87
2023-05-19T08:03:12.050Z,1.87
2023-05-19T08:05:22.516Z,2.10
2023-05-19T08:07:31.497Z,1.77
2023-05-19T08:09:40.718Z,1.60
2023-05-19T08:11:50.020Z,2.13
2023-05-19T08:13:58.732Z,2.07
2023-05-19T08:16:07.787Z,2.00
2023-05-19T08:18:16.754Z,1.90
2023-05-19T08:20:27.347Z,1.70
2023-05-19T08:22:36.445Z,2.00
2023-05-19T08:24:45.215Z,2.27
2023-05-19T08:26:53.792Z,1.60
2023-05-19T08:29:02.716Z,1.60
2023-05-19T08:31:11.556Z,1.60
2023-05-19T08:33:22.028Z,1.50
2023-05-19T08:35:33.057Z,1.70
2023-05-19T08:37:41.992Z,1.90
2023-05-19T08:39:51.393Z,1.50
2023-05-19T08:42:00.359Z,1.83
2023-05-19T08:44:09.876Z,1.60
2023-05-19T08:46:19.084Z,1.60
2023-05-19T08:48:29.996Z,1.63
2023-05-19T08:50:43.672Z,2.03
2023-05-19T08:52:55.676Z,1.53
2023-05-19T08:55:07.026Z,1.60
2023-05-19T08:57:16.105Z,1.90
2023-05-19T08:59:25.019Z,1.73
2023-05-19T09:01:34.383Z,1.70
2023-05-19T09:03:43.815Z,1.40
2023-05-19T09:05:55.585Z,1.60
2023-05-19T09:08:05.730Z,1.63
2023-05-19T09:10:16.284Z,1.40
2023-05-19T09:12:24.996Z,1.70
2023-05-19T09:14:35.077Z,1.37
2023-05-19T09:16:44.004Z,1.60
2023-05-19T09:18:58.691Z,1.60
2023-05-19T09:21:12.259Z,1.57
2023-05-19T09:23:21.137Z,1.63
2023-05-19T09:25:30.138Z,1.73
2023-05-19T09:27:39.426Z,1.90
2023-05-19T09:29:48.567Z,1.73
2023-05-19T09:32:01.138Z,1.60
2023-05-19T09:34:14.278Z,1.73
2023-05-19T09:36:24.967Z,1.77
2023-05-19T09:38:33.963Z,1.63
2023-05-19T09:40:43.127Z,1.70
2023-05-19T09:42:52.147Z,1.53
2023-05-19T09:45:05.060Z,1.70
2023-05-19T09:47:16.753Z,1.50
2023-05-19T09:49:26.076Z,1.60
2023-05-19T09:51:37.636Z,2.20
2023-05-19T09:53:48.475Z,1.40
2023-05-19T09:55:59.331Z,1.40
2023-05-19T09:58:10.383Z,1.50
2023-05-19T10:00:21.159Z,1.87
2023-05-19T10:02:30.928Z,1.43
2023-05-19T10:04:40.532Z,1.60
2023-05-19T10:06:53.792Z,1.67
2023-05-19T10:09:02.902Z,1.63
2023-05-19T10:11:12.283Z,2.07
2023-05-19T10:13:21.781Z,1.67
2023-05-19T10:15:30.819Z,1.43
2023-05-19T10:17:41.117Z,1.63
2023-05-19T10:19:50.995Z,1.67
2023-05-19T10:22:01.061Z,1.57
2023-05-19T10:24:11.543Z,2.00
2023-05-19T10:26:22.563Z,1.43
2023-05-19T10:28:36.984Z,1.73
2023-05-19T10:30:49.028Z,1.67
2023-05-19T10:32:58.658Z,1.43
2023-05-19T10:35:18.808Z,1.60
2023-05-19T10:37:34.029Z,1.47
2023-05-19T10:39:44.799Z,1.60
2023-05-19T10:41:56.762Z,1.67
2023-05-19T10:44:10.227Z,1.40
2023-05-19T10:46:19.034Z,1.80
2023-05-19T10:48:27.929Z,1.40
2023-05-19T10:50:38.932Z,1.57
2023-05-19T10:52:55.776Z,1.83
2023-05-19T10:55:05.172Z,1.80
2023-05-19T10:57:17.507Z,1.40
2023-05-19T10:59:33.815Z,1.90
2023-05-19T11:01:42.608Z,1.83
2023-05-19T11:03:52.351Z,1.83
2023-05-19T11:06:17.565Z,1.87
2023-05-19T11:08:35.352Z,1.77
2023-05-19T11:10:46.741Z,1.60
2023-05-19T11:12:59.378Z,1.90
2023-05-19T11:15:10.143Z,2.07
2023-05-19T11:17:18.843Z,1.60
2023-05-19T11:19:28.326Z,1.43
2023-05-19T11:21:43.862Z,1.50
2023-05-19T11:23:55.081Z,1.60
2023-05-19T11:26:04.708Z,1.37
2023-05-19T11:28:14.374Z,1.20
2023-05-19T11:30:23.266Z,1.33
2023-05-19T11:32:33.791Z,1.40
2023-05-19T11:34:43.554Z,1.50
2023-05-19T11:36:52.900Z,1.70
2023-05-19T11:39:04.323Z,1.40
2023-05-19T11:41:13.433Z,1.63
2023-05-19T11:43:24.264Z,1.50
2023-05-19T11:45:34.512Z,1.10
2023-05-19T11:48:00.163Z,1.70
2023-05-19T11:50:12.821Z,1.50
2023-05-19T11:52:23.638Z,1.53
2023-05-19T11:54:36.597Z,1.17
2023-05-19T11:56:46.428Z,1.30
2023-05-19T11:58:55.564Z,1.20
2023-05-19T12:01:06.784Z,1.50
2023-05-19T12:03:16.167Z,1.40
2023-05-19T12:05:26.657Z,1.30
2023-05-19T12:07:35.767Z,1.17
2023-05-19T12:09:47.796Z,1.13
2023-05-19T12:11:57.274Z,1.37
2023-05-19T12:14:06.361Z,1.10
2023-05-19T12:16:15.453Z,1.27
2023-05-19T12:18:24.664Z,1.50
2023-05-19T12:20:35.625Z,1.20
2023-05-19T12:22:45.717Z,1.30
2023-05-19T12:24:56.998Z,1.57
2023-05-19T12:27:09.772Z,1.33
2023-05-19T12:29:18.363Z,1.30
2023-05-19T12:31:28.263Z,1.20
2023-05-19T12:33:36.996Z,1.33
2023-05-19T12:35:46.205Z,1.50
2023-05-19T12:37:55.291Z,1.10
2023-05-19T12:40:05.813Z,1.10
2023-05-19T12:42:14.868Z,1.27
2023-05-19T12:44:23.673Z,1.23
2023-05-19T12:46:35.215Z,1.37
2023-05-19T12:48:44.108Z,1.20
2023-05-19T12:50:55.678Z,1.20
2023-05-19T12:53:04.963Z,1.30
2023-05-19T12:55:17.046Z,1.20
2023-05-19T12:57:26.228Z,1.10
2023-05-19T12:59:38.822Z,1.10
2023-05-19T13:01:47.943Z,1.20
2023-05-19T13:03:56.813Z,1.27
2023-05-19T13:06:06.693Z,1.10
2023-05-19T13:08:16.519Z,1.00
2023-05-19T13:10:28.911Z,1.30
2023-05-19T13:12:38.359Z,1.23
2023-05-19T13:14:47.400Z,1.20
2023-05-19T13:16:56.569Z,1.20
2023-05-19T13:19:06.437Z,1.17
2023-05-19T13:21:15.941Z,1.40
2023-05-19T13:23:25.830Z,1.10
2023-05-19T13:25:36.808Z,1.20
2023-05-19T13:27:47.443Z,1.40
2023-05-19T13:29:56.574Z,1.17
2023-05-19T13:32:05.261Z,1.20
2023-05-19T13:34:13.953Z,1.10
2023-05-19T13:36:22.759Z,1.40
2023-05-19T13:38:31.462Z,1.40
2023-05-19T13:40:42.357Z,1.10
2023-05-19T13:42:51.334Z,1.20
2023-05-19T13:45:00.113Z,1.20
2023-05-19T13:47:09.276Z,1.10
2023-05-19T13:49:18.228Z,1.50
2023-05-19T13:51:27.422Z,1.20
2023-05-19T13:53:36.889Z,1.37
2023-05-19T13:55:47.953Z,1.07
2023-05-19T13:57:56.761Z,1.40
2023-05-19T14:00:06.087Z,1.10
2023-05-19T14:02:14.798Z,1.07
2023-05-19T14:04:24.022Z,1.20
2023-05-19T14:06:33.274Z,1.20
2023-05-19T14:08:42.388Z,1.43
2023-05-19T14:10:53.981Z,1.40
2023-05-19T14:15:15.037Z,1.30
2023-05-19T14:17:23.867Z,1.30
2023-05-19T14:19:32.951Z,1.53
2023-05-19T14:21:41.866Z,1.50
2023-05-19T14:23:50.686Z,1.43
2023-05-19T14:26:00.910Z,1.30
2023-05-19T14:28:11.438Z,1.30
2023-05-19T14:30:20.032Z,1.80
2023-05-19T14:32:30.372Z,1.70
2023-05-19T14:34:39.481Z,1.80
2023-05-19T14:36:49.090Z,1.57
2023-05-19T14:38:58.311Z,1.93
2023-05-19T14:41:09.481Z,1.97
2023-05-19T14:43:18.643Z,2.00
2023-05-19T14:45:27.400Z,1.60
2023-05-19T14:47:36.411Z,2.10
2023-05-19T14:49:45.085Z,1.77
2023-05-19T14:51:54.136Z,1.50
2023-05-19T14:54:03.471Z,1.90
2023-05-19T14:56:14.486Z,1.60
2023-05-19T14:58:29.031Z,2.10
2023-05-19T15:00:38.291Z,2.00
2023-05-19T15:02:46.898Z,1.70
2023-05-19T15:04:55.502Z,2.13
2023-05-19T15:07:10.520Z,1.70
2023-05-19T15:09:20.445Z,1.57
2023-05-19T15:11:31.402Z,1.80
2023-05-19T15:13:40.343Z,1.70
2023-05-19T15:15:49.850Z,1.80
2023-05-19T15:17:58.531Z,1.83
2023-05-19T15:20:08.115Z,2.33
2023-05-19T15:22:16.978Z,1.80
2023-05-19T15:24:26.172Z,1.77
2023-05-19T15:26:37.034Z,1.83
2023-05-19T15:28:46.519Z,2.00
2023-05-19T15:30:55.798Z,2.00
2023-05-19T15:33:04.699Z,2.00
2023-05-19T15:35:13.831Z,2.13
2023-05-19T15:37:22.915Z,1.60
2023-05-19T15:39:34.053Z,1.97
2023-05-19T15:41:44.529Z,1.70
2023-05-19T15:43:53.744Z,2.13
2023-05-19T15:46:02.784Z,1.83
2023-05-19T15:48:11.702Z,1.70
2023-05-19T15:50:20.647Z,1.90
2023-05-19T15:52:29.453Z,1.67
2023-05-19T15:54:38.257Z,1.60
2023-05-19T15:56:48.468Z,1.50
2023-05-19T15:58:57.554Z,1.80
2023-05-19T16:01:06.811Z,1.90
2023-05-19T16:03:15.517Z,1.47
2023-05-19T16:05:24.772Z,1.60
2023-05-19T16:07:33.522Z,1.60
2023-05-19T16:09:42.724Z,1.70
2023-05-19T16:11:52.843Z,2.17
2023-05-19T16:14:01.608Z,1.67
2023-05-19T16:16:10.287Z,1.70
2023-05-19T16:18:19.384Z,1.77
2023-05-19T16:20:30.225Z,1.77
2023-05-19T16:22:38.885Z,2.00
2023-05-19T16:24:47.943Z,2.30
2023-05-19T16:26:58.469Z,2.00
2023-05-19T16:29:07.332Z,1.80
2023-05-19T16:31:16.314Z,1.60
2023-05-19T16:33:25.578Z,1.40
2023-05-19T16:35:35.036Z,1.70
2023-05-19T16:37:44.087Z,2.00
2023-05-19T16:39:52.996Z,1.70
2023-05-19T16:42:03.672Z,2.03
2023-05-19T16:44:14.896Z,2.00
2023-05-19T16:46:23.943Z,1.87
2023-05-19T16:48:33.076Z,2.20
2023-05-19T16:50:42.179Z,1.97
2023-05-19T16:52:51.385Z,1.97
2023-05-19T16:55:00.951Z,1.70
2023-05-19T16:57:11.600Z,2.17
2023-05-19T16:59:20.323Z,1.70
2023-05-19T17:01:29.079Z,1.60
2023-05-19T17:03:38.313Z,2.00
2023-05-19T17:05:47.566Z,1.60
2023-05-19T17:07:56.990Z,1.57
2023-05-19T17:10:06.027Z,1.60
2023-05-19T17:12:16.970Z,2.00
2023-05-19T17:14:26.969Z,2.10
2023-05-19T17:16:36.293Z,2.10
2023-05-19T17:18:46.187Z,1.70
2023-05-19T17:20:55.031Z,2.03
2023-05-19T17:23:04.091Z,1.70
2023-05-19T17:25:13.077Z,2.30
2023-05-19T17:27:23.852Z,2.10
2023-05-19T17:29:32.912Z,1.70
2023-05-19T17:31:41.585Z,1.67
2023-05-19T17:33:50.944Z,1.40
2023-05-19T17:36:00.122Z,1.70
2023-05-19T17:38:08.913Z,1.47
2023-05-19T17:40:17.892Z,1.63
2023-05-19T17:42:29.193Z,1.60
2023-05-19T17:44:38.263Z,1.30
2023-05-19T17:46:47.411Z,1.43
2023-05-19T17:48:56.068Z,2.13
2023-05-19T17:51:05.814Z,1.73
2023-05-19T17:53:14.667Z,1.83
2023-05-19T17:55:28.289Z,1.60
2023-05-19T17:57:39.266Z,1.70
2023-05-19T17:59:48.417Z,1.40
2023-05-19T18:01:57.497Z,1.70
2023-05-19T18:04:07.136Z,1.50
2023-05-19T18:06:16.335Z,1.53
2023-05-19T18:08:26.136Z,1.70
2023-05-19T18:10:37.845Z,1.40
2023-05-19T18:12:48.657Z,1.50
2023-05-19T18:14:57.643Z,1.43
2023-05-19T18:17:06.873Z,1.37
2023-05-19T18:19:15.698Z,1.23
2023-05-19T18:21:25.334Z,1.70
2023-05-19T18:23:34.321Z,1.20
2023-05-19T18:25:42.826Z,1.30
2023-05-19T18:27:55.896Z,1.20
2023-05-19T18:30:04.969Z,1.80
2023-05-19T18:32:14.703Z,4.00
2023-05-19T18:34:23.865Z,1.70
2023-05-19T18:36:32.592Z,1.63
2023-05-19T18:38:41.317Z,1.40
2023-05-19T18:40:50.977Z,1.30
2023-05-19T18:43:01.673Z,1.40
2023-05-19T18:45:11.166Z,1.33
2023-05-19T18:47:20.040Z,1.20
2023-05-19T18:49:28.666Z,1.20
2023-05-19T18:51:37.845Z,1.30
2023-05-19T18:53:48.673Z,1.10
2023-05-19T18:55:57.308Z,0.93
2023-05-19T18:58:07.773Z,1.27
2023-05-19T19:00:16.978Z,1.10
2023-05-19T19:02:26.220Z,1.07
2023-05-19T19:04:35.742Z,1.10
2023-05-19T19:06:44.739Z,1.37
2023-05-19T19:08:53.527Z,1.00
2023-05-19T19:11:02.372Z,1.30
2023-05-19T19:13:13.032Z,1.30
2023-05-19T19:15:21.629Z,1.10
2023-05-19T19:17:30.577Z,1.00
2023-05-19T19:19:39.166Z,1.00
2023-05-19T19:21:48.146Z,1.07
2023-05-19T19:23:57.136Z,1.20
2023-05-19T19:26:08.993Z,1.00
2023-05-19T19:28:19.358Z,0.83
2023-05-19T19:30:28.553Z,1.10
2023-05-19T19:32:37.484Z,1.00
2023-05-19T19:34:46.623Z,1.07
2023-05-19T19:36:55.429Z,0.93
2023-05-19T19:39:04.446Z,1.10
2023-05-19T19:41:13.502Z,0.90
2023-05-19T19:43:24.372Z,1.00
2023-05-19T19:45:34.891Z,0.90
2023-05-19T19:47:43.729Z,1.00
2023-05-19T19:49:53.259Z,1.00
2023-05-19T19:52:01.904Z,1.20
2023-05-19T19:54:11.180Z,1.23
2023-05-19T19:56:20.477Z,0.90
2023-05-19T19:58:31.950Z,0.80
2023-05-19T20:00:40.831Z,1.10
2023-05-19T20:03:03.785Z,0.90
2023-05-19T20:05:14.273Z,0.90
2023-05-19T20:07:23.654Z,0.90
2023-05-19T20:09:32.837Z,1.10
2023-05-19T20:11:41.461Z,0.83
2023-05-19T20:13:52.310Z,1.10
2023-05-19T20:16:01.034Z,0.97
2023-05-19T20:18:10.238Z,1.20
2023-05-19T20:20:19.339Z,0.93
2023-05-19T20:22:28.750Z,1.27
2023-05-19T20:24:38.106Z,1.10
2023-05-19T20:26:47.473Z,1.10
2023-05-19T20:28:57.956Z,1.10
2023-05-19T20:31:07.012Z,1.30
2023-05-19T20:33:15.697Z,1.00
2023-05-19T20:35:24.698Z,1.10
2023-05-19T20:37:33.759Z,1.07
2023-05-19T20:39:42.423Z,0.93
2023-05-19T20:41:52.022Z,1.00
2023-05-19T20:44:02.534Z,0.90
2023-05-19T20:46:11.613Z,1.27
2023-05-19T20:48:20.685Z,1.00
2023-05-19T20:50:29.299Z,1.13
2023-05-19T20:52:38.201Z,0.97
2023-05-19T20:54:47.642Z,1.10
2023-05-19T20:56:56.981Z,1.07
2023-05-19T20:59:07.442Z,1.13
2023-05-19T21:01:18.036Z,1.50
2023-05-19T21:03:28.940Z,1.43
2023-05-19T21:05:38.089Z,1.40
2023-05-19T21:07:46.840Z,1.20
2023-05-19T21:09:56.595Z,1.17
2023-05-19T21:12:05.598Z,1.00
2023-05-19T21:14:16.209Z,0.93
2023-05-19T21:16:25.277Z,0.97
2023-05-19T21:18:34.988Z,0.80
2023-05-19T21:20:43.615Z,1.23
2023-05-19T21:22:52.208Z,1.10
2023-05-19T21:25:00.934Z,1.03
2023-05-19T21:27:09.595Z,0.83
2023-05-19T21:29:19.830Z,1.00
2023-05-19T21:31:29.053Z,1.40
2023-05-19T21:33:38.267Z,0.90
2023-05-19T21:35:47.550Z,1.00
2023-05-19T21:37:56.799Z,1.00
2023-05-19T21:40:05.660Z,0.90
2023-05-19T21:42:14.373Z,1.00
2023-05-19T21:44:25.280Z,0.87
2023-05-19T21:46:34.249Z,0.90
2023-05-19T21:48:43.457Z,1.20
2023-05-19T21:50:55.044Z,0.90
2023-05-19T21:53:04.206Z,1.00
2023-05-19T21:55:13.064Z,1.30
2023-05-19T21:57:21.954Z,0.90
2023-05-19T21:59:32.494Z,1.20
2023-05-19T22:01:41.259Z,1.10
2023-05-19T22:03:50.443Z,0.90
2023-05-19T22:05:59.290Z,1.10
2023-05-19T22:08:08.305Z,1.10
2023-05-19T22:10:17.480Z,1.43
2023-05-19T22:12:27.284Z,1.10
2023-05-19T22:14:37.699Z,0.97
2023-05-19T22:16:47.751Z,1.03
2023-05-19T22:18:56.722Z,1.07
2023-05-19T22:21:05.862Z,1.10
2023-05-19T22:23:14.617Z,1.03
2023-05-19T22:25:23.556Z,1.10
2023-05-19T22:27:32.482Z,1.00
2023-05-19T22:29:42.988Z,1.00
2023-05-19T22:31:52.229Z,1.00
2023-05-19T22:34:01.176Z,1.10
2023-05-19T22:36:11.124Z,1.07
2023-05-19T22:38:20.392Z,1.20
2023-05-19T22:40:29.061Z,1.37
2023-05-19T22:42:37.833Z,1.50
2023-05-19T22:44:48.391Z,1.00
2023-05-19T22:46:57.839Z,1.20
2023-05-19T22:49:07.116Z,1.07
2023-05-19T22:51:16.639Z,1.27
2023-05-19T22:53:25.979Z,1.13
2023-05-19T22:55:35.193Z,0.90
2023-05-19T22:57:44.134Z,0.93
2023-05-19T22:59:55.075Z,1.20
2023-05-19T23:02:04.124Z,1.00
2023-05-19T23:04:13.102Z,1.30
2023-05-19T23:06:21.742Z,1.20
2023-05-19T23:08:30.462Z,1.03
2023-05-19T23:10:39.302Z,1.07
2023-05-19T23:12:49.252Z,1.10
2023-05-19T23:14:59.647Z,1.00
2023-05-19T23:17:08.810Z,1.00
2023-05-19T23:19:18.215Z,1.13
2023-05-19T23:21:27.328Z,1.20
2023-05-19T23:23:37.140Z,1.20
2023-05-19T23:25:46.189Z,1.20
2023-05-19T23:27:54.911Z,1.20
2023-05-19T23:30:05.069Z,1.30
2023-05-19T23:32:13.844Z,1.30
2023-05-19T23:34:22.597Z,1.60
2023-05-19T23:36:32.035Z,1.40
2023-05-19T23:38:40.961Z,1.53
2023-05-19T23:40:49.479Z,1.60
2023-05-19T23:42:58.445Z,1.20
2023-05-19T23:45:10.346Z,1.30
2023-05-19T23:47:19.377Z,1.37
2023-05-19T23:49:28.742Z,1.53
2023-05-19T23:51:37.658Z,1.80
2023-05-19T23:53:46.583Z,1.60
2023-05-19T23:55:56.501Z,2.13
2023-05-19T23:58:06.668Z,2.20
